Time;durP1;ratioP1;P1;durP2;ratioP2;P2;SDS_P1;SDS_P2;PMS_P1;PMS_P2;Temp;Humidity;BMP_temperature;BMP_pressure;BME280_temperature;BME280_humidity;BME280_pressure;Samples;Min_cycle;Max_cycle;Signal;HPM_P1;HPM_P2
2021/11/26 00:01:39;;;;;;;0.70;0.50;;;5.80;99.90;;;;;;5016732;28;20279;-75
2021/11/26 00:04:07;;;;;;;1.23;1.13;;;5.80;99.90;;;;;;5012026;28;20407;-76
2021/11/26 00:06:32;;;;;;;0.93;0.87;;;5.80;99.90;;;;;;5010466;28;20445;-75
2021/11/26 00:09:00;;;;;;;3.70;3.40;;;5.70;99.90;;;;;;5018337;28;20426;-75
2021/11/26 00:11:25;;;;;;;0.70;0.60;;;5.70;99.90;;;;;;5031329;28;20191;-75
2021/11/26 00:14:02;;;;;;;2.70;1.43;;;5.60;99.90;;;;;;5031250;28;20406;-76
2021/11/26 00:16:33;;;;;;;0.70;0.50;;;5.50;99.90;;;;;;5011776;28;20167;-76
2021/11/26 00:19:04;;;;;;;0.70;0.60;;;5.40;99.90;;;;;;5011969;28;20404;-76
2021/11/26 00:21:29;;;;;;;1.00;0.80;;;5.30;99.90;;;;;;5010580;28;21054;-76
2021/11/26 00:23:55;;;;;;;0.83;0.83;;;5.30;99.90;;;;;;5011991;28;20403;-77
2021/11/26 00:26:21;;;;;;;1.57;1.03;;;5.20;99.90;;;;;;5014909;28;20172;-76
2021/11/26 00:28:46;;;;;;;1.33;0.80;;;5.10;99.90;;;;;;5021511;28;20453;-77
2021/11/26 00:31:12;;;;;;;1.67;1.00;;;5.10;99.90;;;;;;5034147;28;20265;-76
2021/11/26 00:33:38;;;;;;;9.23;1.50;;;5.10;99.90;;;;;;5033672;28;20179;-77
2021/11/26 00:36:03;;;;;;;1.27;1.17;;;5.10;99.90;;;;;;5034996;28;20234;-77
2021/11/26 00:38:29;;;;;;;0.70;0.67;;;5.10;99.90;;;;;;5035751;28;20252;-77
2021/11/26 00:40:55;;;;;;;3.30;1.10;;;5.00;99.90;;;;;;5031279;28;20188;-75
2021/11/26 00:43:20;;;;;;;0.93;0.80;;;5.10;99.90;;;;;;5022032;28;20178;-76
2021/11/26 00:45:46;;;;;;;1.33;1.23;;;5.10;99.90;;;;;;5015304;28;20208;-75
2021/11/26 00:48:11;;;;;;;2.60;2.20;;;5.00;99.90;;;;;;5020723;28;20180;-76
2021/11/26 00:50:37;;;;;;;0.70;0.50;;;5.00;99.90;;;;;;5037452;28;20183;-76
2021/11/26 00:53:04;;;;;;;1.13;1.03;;;5.00;99.90;;;;;;5034954;28;20667;-75
2021/11/26 00:55:30;;;;;;;0.83;0.83;;;5.00;99.90;;;;;;5036457;28;20412;-77
2021/11/26 00:57:55;;;;;;;2.37;2.27;;;5.00;99.90;;;;;;5021435;28;20422;-77
2021/11/26 01:00:21;;;;;;;3.77;1.17;;;5.00;99.90;;;;;;5018894;28;20188;-77
2021/11/26 01:02:47;;;;;;;1.10;1.00;;;5.00;99.90;;;;;;5018985;28;20581;-77
2021/11/26 01:05:13;;;;;;;2.10;2.00;;;5.10;99.90;;;;;;5023333;28;20430;-77
2021/11/26 01:07:40;;;;;;;1.10;1.00;;;5.10;99.90;;;;;;5036943;28;20500;-77
2021/11/26 01:10:09;;;;;;;1.60;1.50;;;5.10;99.90;;;;;;5037876;28;20425;-77
2021/11/26 01:12:35;;;;;;;1.40;1.27;;;5.10;99.90;;;;;;5034341;28;21022;-76
2021/11/26 01:15:02;;;;;;;0.70;0.53;;;5.20;99.90;;;;;;5034287;28;20415;-76
2021/11/26 01:17:27;;;;;;;0.80;0.60;;;5.20;99.90;;;;;;5034463;28;20410;-76
2021/11/26 01:19:53;;;;;;;5.73;1.33;;;5.20;99.90;;;;;;5033961;28;20441;-75
2021/11/26 01:22:19;;;;;;;0.70;0.50;;;5.20;99.90;;;;;;5034256;28;20230;-76
2021/11/26 01:24:44;;;;;;;0.70;0.50;;;5.10;99.90;;;;;;5032613;28;20172;-76
2021/11/26 01:27:10;;;;;;;2.50;1.70;;;5.10;99.90;;;;;;5034068;28;20168;-76
2021/11/26 01:29:36;;;;;;;2.17;2.07;;;5.20;99.90;;;;;;5034204;28;20195;-76
2021/11/26 01:32:04;;;;;;;0.70;0.47;;;5.20;99.90;;;;;;5034254;28;20540;-76
2021/11/26 01:34:29;;;;;;;1.30;1.20;;;5.20;99.90;;;;;;5032883;28;20417;-75
2021/11/26 01:36:55;;;;;;;0.70;0.67;;;5.10;99.90;;;;;;5014999;28;20430;-76
2021/11/26 01:39:21;;;;;;;3.57;1.67;;;5.10;99.90;;;;;;5024828;28;20172;-75
2021/11/26 01:41:46;;;;;;;1.03;1.03;;;5.10;99.90;;;;;;5021875;28;20231;-76
2021/11/26 01:44:12;;;;;;;0.70;0.50;;;5.10;99.90;;;;;;5032052;28;20637;-75
2021/11/26 01:46:43;;;;;;;0.70;0.50;;;5.00;99.90;;;;;;5018253;28;20460;-76
2021/11/26 01:49:08;;;;;;;0.70;0.50;;;5.00;99.90;;;;;;5018344;28;20177;-75
2021/11/26 01:51:34;;;;;;;0.80;0.70;;;5.00;99.90;;;;;;5025047;28;20452;-76
2021/11/26 01:54:00;;;;;;;0.70;0.50;;;5.00;99.90;;;;;;5031294;28;20260;-75
2021/11/26 01:56:26;;;;;;;1.27;1.17;;;5.00;99.90;;;;;;5031433;28;20602;-76
2021/11/26 01:58:52;;;;;;;0.70;0.50;;;5.00;99.90;;;;;;5033074;28;20180;-75
2021/11/26 02:01:19;;;;;;;1.03;0.93;;;5.00;99.90;;;;;;5023660;28;20967;-75
2021/11/26 02:03:44;;;;;;;1.13;1.13;;;4.90;99.90;;;;;;5027236;28;20164;-75
2021/11/26 02:06:10;;;;;;;1.33;0.87;;;4.90;99.90;;;;;;5031775;28;20896;-75
2021/11/26 02:08:36;;;;;;;1.07;1.07;;;4.80;99.90;;;;;;5025216;28;20310;-75
2021/11/26 02:11:02;;;;;;;0.70;0.53;;;4.80;99.90;;;;;;5031837;28;20602;-75
2021/11/26 02:13:27;;;;;;;1.07;0.60;;;4.70;99.90;;;;;;5033090;28;20572;-75
2021/11/26 02:15:54;;;;;;;2.10;0.90;;;4.70;99.90;;;;;;5048142;28;20249;-75
2021/11/26 02:18:20;;;;;;;0.70;0.70;;;4.70;99.90;;;;;;5033418;28;20175;-75
2021/11/26 02:20:45;;;;;;;1.33;1.07;;;4.60;99.90;;;;;;5033190;28;20445;-76
2021/11/26 02:23:12;;;;;;;0.87;0.80;;;4.60;99.90;;;;;;5032914;28;20429;-76
2021/11/26 02:25:38;;;;;;;0.70;0.50;;;4.60;99.90;;;;;;5031472;28;20250;-76
2021/11/26 02:28:06;;;;;;;0.90;0.80;;;4.60;99.90;;;;;;5033155;28;20406;-76
2021/11/26 02:30:33;;;;;;;0.70;0.50;;;4.70;99.90;;;;;;5032840;28;20430;-75
2021/11/26 02:33:03;;;;;;;1.47;0.83;;;4.70;99.90;;;;;;5031804;28;20414;-76
2021/11/26 02:35:30;;;;;;;1.20;1.13;;;4.80;99.90;;;;;;5028639;28;20454;-76
2021/11/26 02:37:57;;;;;;;0.90;0.70;;;4.80;99.90;;;;;;5024751;28;20472;-76
2021/11/26 02:40:26;;;;;;;1.17;1.03;;;4.80;99.90;;;;;;5046136;28;20556;-76
2021/11/26 02:42:54;;;;;;;3.70;1.60;;;4.90;99.90;;;;;;5013037;28;20446;-76
2021/11/26 02:45:20;;;;;;;0.83;0.57;;;4.90;99.90;;;;;;5012940;28;20919;-76
2021/11/26 02:47:47;;;;;;;0.90;0.70;;;4.90;99.90;;;;;;5021926;28;20923;-76
2021/11/26 02:50:13;;;;;;;0.97;0.87;;;4.90;99.90;;;;;;5031981;28;20442;-75
2021/11/26 02:52:40;;;;;;;1.00;0.80;;;5.00;99.90;;;;;;5032643;28;20884;-76
2021/11/26 02:55:08;;;;;;;0.70;0.50;;;5.00;99.90;;;;;;5029063;28;20423;-76
2021/11/26 02:57:34;;;;;;;1.67;1.57;;;5.00;99.90;;;;;;5012946;28;20800;-76
2021/11/26 03:00:00;;;;;;;0.70;0.50;;;5.00;99.90;;;;;;5014724;28;20514;-76
2021/11/26 03:02:26;;;;;;;1.93;1.83;;;5.00;99.90;;;;;;5032038;28;20176;-76
2021/11/26 03:04:51;;;;;;;1.47;1.37;;;5.00;99.90;;;;;;5031932;28;20288;-76
2021/11/26 03:07:17;;;;;;;0.80;0.80;;;5.00;99.90;;;;;;5032262;28;20175;-76
2021/11/26 03:09:42;;;;;;;0.70;0.60;;;5.00;99.90;;;;;;5032361;28;20187;-76
2021/11/26 03:12:09;;;;;;;0.60;0.50;;;5.10;99.90;;;;;;5025072;28;20206;-74
2021/11/26 03:14:35;;;;;;;1.30;1.20;;;5.00;99.90;;;;;;5030273;28;20183;-76
2021/11/26 03:17:02;;;;;;;0.70;0.53;;;5.10;99.90;;;;;;5027950;28;20499;-76
2021/11/26 03:19:28;;;;;;;5.63;1.67;;;5.10;99.90;;;;;;5030586;28;20484;-76
2021/11/26 03:21:53;;;;;;;0.70;0.60;;;5.10;99.90;;;;;;5032022;28;21002;-76
2021/11/26 03:24:19;;;;;;;2.23;1.57;;;5.10;99.90;;;;;;5032222;28;20434;-76
2021/11/26 03:26:44;;;;;;;0.70;0.60;;;5.20;99.90;;;;;;5031298;28;20282;-76
2021/11/26 03:29:11;;;;;;;6.93;0.97;;;5.20;99.90;;;;;;5047468;28;20637;-75
2021/11/26 03:31:38;;;;;;;0.70;0.50;;;5.20;99.90;;;;;;5030189;28;20739;-76
2021/11/26 03:34:03;;;;;;;0.70;0.50;;;5.20;99.90;;;;;;5046331;28;20468;-76
2021/11/26 03:36:29;;;;;;;1.20;1.10;;;5.20;99.90;;;;;;5031718;28;20402;-76
2021/11/26 03:38:55;;;;;;;0.70;0.60;;;5.20;99.90;;;;;;5024647;28;20584;-76
2021/11/26 03:41:21;;;;;;;1.93;1.83;;;5.20;99.90;;;;;;5028333;28;20457;-76
2021/11/26 03:43:47;;;;;;;1.30;1.20;;;5.20;99.90;;;;;;5023337;28;20191;-75
2021/11/26 03:46:16;;;;;;;0.70;0.50;;;5.20;99.90;;;;;;5029083;28;20179;-75
2021/11/26 03:48:42;;;;;;;2.20;2.10;;;5.20;99.90;;;;;;5026866;28;20442;-76
2021/11/26 03:51:08;;;;;;;1.40;1.30;;;5.20;99.90;;;;;;5031778;28;21009;-76
2021/11/26 03:53:33;;;;;;;1.00;0.90;;;5.20;99.90;;;;;;5030651;28;20441;-76
2021/11/26 03:55:59;;;;;;;1.07;0.80;;;5.20;99.90;;;;;;5018281;28;20222;-76
2021/11/26 03:58:24;;;;;;;1.27;1.20;;;5.20;99.90;;;;;;5025331;28;20554;-75
2021/11/26 04:00:50;;;;;;;1.57;1.47;;;5.20;99.90;;;;;;5030242;28;20235;-76
2021/11/26 04:03:15;;;;;;;0.70;0.50;;;5.10;99.90;;;;;;5030566;28;20175;-76
2021/11/26 04:05:41;;;;;;;0.70;0.50;;;5.10;99.90;;;;;;5031467;28;20178;-76
2021/11/26 04:08:07;;;;;;;1.93;1.73;;;5.10;99.90;;;;;;5028419;28;20633;-76
2021/11/26 04:10:33;;;;;;;2.30;2.10;;;5.10;99.90;;;;;;5030180;28;20256;-76
2021/11/26 04:12:59;;;;;;;1.37;1.30;;;5.20;99.90;;;;;;5028623;28;20262;-76
2021/11/26 04:15:25;;;;;;;1.77;1.67;;;5.20;99.90;;;;;;5022672;28;20526;-76
2021/11/26 04:17:51;;;;;;;0.70;0.60;;;5.20;99.90;;;;;;5023881;28;20221;-76
2021/11/26 04:20:18;;;;;;;0.67;0.50;;;5.20;99.90;;;;;;5035457;28;20548;-76
2021/11/26 04:22:45;;;;;;;0.70;0.50;;;5.20;99.90;;;;;;5018490;28;20796;-76
2021/11/26 04:25:14;;;;;;;1.20;1.10;;;5.20;99.90;;;;;;5017651;28;22237;-76
2021/11/26 04:27:39;;;;;;;1.10;1.00;;;5.20;99.90;;;;;;5035149;28;20410;-75
2021/11/26 04:30:07;;;;;;;1.13;1.03;;;5.20;99.90;;;;;;5035332;28;20457;-75
2021/11/26 04:32:33;;;;;;;0.70;0.50;;;5.20;99.90;;;;;;5034756;28;20179;-77
2021/11/26 04:34:58;;;;;;;0.77;0.60;;;5.20;99.90;;;;;;5033134;28;20445;-76
2021/11/26 04:37:24;;;;;;;0.70;0.50;;;5.20;99.90;;;;;;5036087;28;22011;-76
2021/11/26 04:39:50;;;;;;;1.47;1.37;;;5.20;99.90;;;;;;5018245;28;20268;-77
2021/11/26 04:42:16;;;;;;;1.17;0.87;;;5.20;99.90;;;;;;5016702;28;20183;-77
2021/11/26 04:44:42;;;;;;;15.97;3.50;;;5.20;99.90;;;;;;5034408;28;20434;-76
2021/11/26 04:47:07;;;;;;;0.70;0.60;;;5.30;99.90;;;;;;5037269;28;20632;-76
2021/11/26 04:49:33;;;;;;;2.57;1.20;;;5.20;99.90;;;;;;5036209;28;20176;-77
2021/11/26 04:51:58;;;;;;;0.67;0.50;;;5.10;99.90;;;;;;5033772;28;20215;-77
2021/11/26 04:54:24;;;;;;;0.93;0.93;;;5.20;99.90;;;;;;5038010;28;20183;-77
2021/11/26 04:56:49;;;;;;;1.00;0.80;;;5.10;99.90;;;;;;5036956;28;20191;-76
2021/11/26 04:59:15;;;;;;;1.20;1.10;;;5.20;99.90;;;;;;5029652;28;20176;-76
2021/11/26 05:01:41;;;;;;;1.27;0.90;;;5.20;99.90;;;;;;5030535;28;20204;-77
2021/11/26 05:04:06;;;;;;;1.57;1.23;;;5.20;99.90;;;;;;5033919;28;20180;-77
2021/11/26 05:06:35;;;;;;;3.30;1.37;;;5.20;99.90;;;;;;5046509;28;20175;-77
2021/11/26 05:09:05;;;;;;;1.00;0.90;;;5.20;99.90;;;;;;5025138;28;20190;-75
2021/11/26 05:11:31;;;;;;;0.80;0.70;;;5.20;99.90;;;;;;5033669;28;20450;-77
2021/11/26 05:13:57;;;;;;;1.00;0.70;;;5.10;99.90;;;;;;5029126;28;20488;-76
2021/11/26 05:16:23;;;;;;;1.00;1.00;;;5.20;99.90;;;;;;5030813;28;20430;-76
2021/11/26 05:18:48;;;;;;;0.70;0.50;;;5.20;99.90;;;;;;5033215;28;20430;-77
2021/11/26 05:21:14;;;;;;;0.70;0.70;;;5.10;99.90;;;;;;5035973;28;20207;-76
2021/11/26 05:23:40;;;;;;;1.73;1.63;;;5.10;99.90;;;;;;5035495;28;20168;-76
2021/11/26 05:26:07;;;;;;;1.33;0.60;;;5.10;99.90;;;;;;5014618;28;20177;-76
2021/11/26 05:28:33;;;;;;;0.90;0.90;;;5.10;99.90;;;;;;5017522;28;20433;-75
2021/11/26 05:30:59;;;;;;;0.60;0.40;;;5.10;99.90;;;;;;5025123;28;20803;-76
2021/11/26 05:33:25;;;;;;;0.77;0.67;;;5.20;99.90;;;;;;5032240;28;20183;-77
2021/11/26 05:35:51;;;;;;;0.70;0.70;;;5.10;99.90;;;;;;5029740;28;20419;-77
2021/11/26 05:38:16;;;;;;;2.50;1.13;;;5.10;99.90;;;;;;5018241;28;21071;-76
2021/11/26 05:40:42;;;;;;;0.67;0.40;;;5.20;99.90;;;;;;5021993;28;20211;-76
2021/11/26 05:43:08;;;;;;;0.70;0.50;;;5.20;99.90;;;;;;5018085;28;20552;-75
2021/11/26 05:45:34;;;;;;;0.80;0.70;;;5.20;99.90;;;;;;5033868;28;20511;-76
2021/11/26 05:47:59;;;;;;;14.90;1.50;;;5.20;99.90;;;;;;5033412;28;20456;-75
2021/11/26 05:50:27;;;;;;;1.00;0.60;;;5.20;99.90;;;;;;5014364;28;20200;-77
2021/11/26 05:52:53;;;;;;;1.83;1.00;;;5.20;99.90;;;;;;5023118;28;20526;-75
2021/11/26 05:55:23;;;;;;;5.20;2.37;;;5.30;99.90;;;;;;5014203;28;20793;-76
2021/11/26 05:57:49;;;;;;;0.83;0.83;;;5.30;99.90;;;;;;5014208;28;20964;-76
2021/11/26 06:00:17;;;;;;;0.70;0.50;;;5.30;99.90;;;;;;5014429;28;21044;-75
2021/11/26 06:02:43;;;;;;;0.70;0.40;;;5.40;99.90;;;;;;5048414;28;21006;-75
2021/11/26 06:05:09;;;;;;;0.70;0.50;;;5.30;99.90;;;;;;5025594;28;20418;-75
2021/11/26 06:07:34;;;;;;;1.00;1.00;;;5.30;99.90;;;;;;5026986;28;20195;-75
2021/11/26 06:10:01;;;;;;;9.33;2.73;;;5.20;99.90;;;;;;5013690;28;20199;-77
2021/11/26 06:12:27;;;;;;;0.70;0.50;;;5.20;99.90;;;;;;5013665;28;20160;-76
2021/11/26 06:14:54;;;;;;;0.70;0.70;;;5.20;99.90;;;;;;5018083;28;20936;-76
2021/11/26 06:17:22;;;;;;;1.03;0.93;;;5.20;99.90;;;;;;5032307;28;20167;-76
2021/11/26 06:19:48;;;;;;;3.97;1.50;;;5.20;99.90;;;;;;5013464;28;20449;-77
2021/11/26 06:22:14;;;;;;;0.70;0.50;;;5.20;99.90;;;;;;5013381;28;20537;-76
2021/11/26 06:24:40;;;;;;;0.83;0.83;;;5.10;99.90;;;;;;5013528;28;20188;-76
2021/11/26 06:27:05;;;;;;;2.67;2.50;;;5.10;99.90;;;;;;5031080;28;20916;-76
2021/11/26 06:29:31;;;;;;;1.20;1.10;;;5.10;99.90;;;;;;5031460;28;20167;-75
2021/11/26 06:31:57;;;;;;;0.70;0.50;;;5.10;99.90;;;;;;5026712;28;20427;-77
2021/11/26 06:34:22;;;;;;;1.87;1.30;;;5.10;99.90;;;;;;5041575;28;20628;-77
2021/11/26 06:36:48;;;;;;;1.27;0.97;;;5.10;99.90;;;;;;5032538;28;20182;-75
2021/11/26 06:39:14;;;;;;;0.60;0.40;;;5.10;99.90;;;;;;5035049;28;20197;-76
2021/11/26 06:41:39;;;;;;;1.47;1.37;;;5.10;99.90;;;;;;5034218;28;20567;-76
2021/11/26 06:44:05;;;;;;;0.70;0.50;;;5.10;99.90;;;;;;5022118;28;20274;-76
2021/11/26 06:46:31;;;;;;;0.70;0.60;;;5.10;99.90;;;;;;5032420;28;20182;-77
2021/11/26 06:48:56;;;;;;;0.77;0.60;;;5.10;99.90;;;;;;5050826;28;20219;-76
2021/11/26 06:51:22;;;;;;;0.77;0.77;;;5.10;99.90;;;;;;5031303;28;20618;-76
2021/11/26 06:53:47;;;;;;;0.70;0.50;;;5.10;99.90;;;;;;5016068;28;20589;-76
2021/11/26 06:56:13;;;;;;;1.17;0.77;;;5.10;99.90;;;;;;5025101;28;20573;-77
2021/11/26 06:58:39;;;;;;;0.63;0.40;;;5.00;99.90;;;;;;5035271;28;20214;-77
2021/11/26 07:01:04;;;;;;;0.70;0.40;;;4.90;99.90;;;;;;5028497;28;20219;-76
2021/11/26 07:03:30;;;;;;;1.40;0.70;;;4.90;99.90;;;;;;5028506;28;20178;-76
2021/11/26 07:05:56;;;;;;;0.70;0.50;;;4.90;99.90;;;;;;5024216;28;20262;-77
2021/11/26 07:08:24;;;;;;;0.70;0.60;;;4.90;99.90;;;;;;5033885;28;20172;-77
2021/11/26 07:10:50;;;;;;;0.70;0.50;;;4.90;99.90;;;;;;5020484;28;20862;-76
2021/11/26 07:13:15;;;;;;;0.67;0.50;;;4.90;99.90;;;;;;5028033;28;20515;-76
2021/11/26 07:15:41;;;;;;;0.70;0.50;;;4.90;99.90;;;;;;5035363;28;20187;-76
2021/11/26 07:18:06;;;;;;;0.70;0.60;;;4.80;99.90;;;;;;5036041;28;20175;-76
2021/11/26 07:20:32;;;;;;;0.70;0.50;;;4.90;99.90;;;;;;5034983;28;20242;-77
2021/11/26 07:22:59;;;;;;;1.23;1.13;;;4.90;99.90;;;;;;5034100;28;20174;-77
2021/11/26 07:25:28;;;;;;;0.70;0.60;;;5.00;99.90;;;;;;5035138;28;20468;-76
2021/11/26 07:27:54;;;;;;;0.70;0.50;;;4.90;99.90;;;;;;5034220;28;20417;-76
2021/11/26 07:30:20;;;;;;;1.93;1.47;;;5.00;99.90;;;;;;5034245;28;20445;-78
2021/11/26 07:32:45;;;;;;;1.40;1.30;;;4.90;99.90;;;;;;5035504;28;20421;-76
2021/11/26 07:35:13;;;;;;;0.70;0.50;;;5.00;99.90;;;;;;5034737;28;20195;-77
2021/11/26 07:37:39;;;;;;;0.70;0.57;;;5.00;99.90;;;;;;5033784;28;20275;-76
2021/11/26 07:40:07;;;;;;;0.70;0.40;;;5.10;99.90;;;;;;5033989;28;20932;-76
2021/11/26 07:42:34;;;;;;;2.77;2.20;;;5.10;99.90;;;;;;5033902;28;20494;-76
2021/11/26 07:44:59;;;;;;;0.70;0.50;;;5.10;99.90;;;;;;5031187;28;20464;-76
2021/11/26 07:47:25;;;;;;;0.70;0.50;;;5.00;99.90;;;;;;5035357;28;20410;-77
2021/11/26 07:49:53;;;;;;;0.70;0.40;;;5.00;99.90;;;;;;5034266;28;20192;-77
2021/11/26 07:52:19;;;;;;;0.70;0.50;;;5.00;99.90;;;;;;5036875;28;20231;-76
2021/11/26 07:54:45;;;;;;;0.60;0.40;;;5.00;99.90;;;;;;5029837;28;20447;-77
2021/11/26 07:57:11;;;;;;;0.60;0.50;;;4.90;99.90;;;;;;5018549;28;21042;-77
2021/11/26 07:59:37;;;;;;;0.70;0.40;;;4.90;99.90;;;;;;5024434;28;20418;-77
2021/11/26 08:02:03;;;;;;;0.70;0.60;;;5.00;99.90;;;;;;5038678;28;20210;-77
2021/11/26 08:04:30;;;;;;;0.70;0.50;;;5.00;99.90;;;;;;5038373;28;20489;-76
2021/11/26 08:06:55;;;;;;;1.83;1.73;;;5.10;99.90;;;;;;5037778;28;20433;-76
2021/11/26 08:09:21;;;;;;;0.70;0.60;;;5.10;99.90;;;;;;5053364;28;20414;-77
2021/11/26 08:11:49;;;;;;;0.60;0.40;;;5.10;99.90;;;;;;5038211;28;20628;-76
2021/11/26 08:14:15;;;;;;;3.50;1.57;;;5.20;99.90;;;;;;5054038;28;20941;-76
2021/11/26 08:16:41;;;;;;;0.70;0.50;;;5.10;99.90;;;;;;5029001;28;20785;-76
2021/11/26 08:19:10;;;;;;;0.70;0.63;;;5.10;99.90;;;;;;5018510;28;20421;-77
2021/11/26 08:21:37;;;;;;;0.70;0.43;;;5.10;99.90;;;;;;5017854;28;20258;-76
2021/11/26 08:24:04;;;;;;;0.70;0.60;;;5.10;99.90;;;;;;5017788;28;20411;-76
2021/11/26 08:26:30;;;;;;;0.70;0.50;;;5.10;99.90;;;;;;5020888;28;20438;-77
2021/11/26 08:28:56;;;;;;;1.23;1.13;;;5.00;99.90;;;;;;5053948;28;21133;-77
2021/11/26 08:31:22;;;;;;;0.70;0.60;;;5.10;99.90;;;;;;5038983;28;20426;-77
2021/11/26 08:33:48;;;;;;;1.27;1.17;;;5.40;99.90;;;;;;5027001;28;20423;-77
2021/11/26 08:36:13;;;;;;;0.90;0.70;;;5.50;99.90;;;;;;5019550;28;20184;-78
2021/11/26 08:38:39;;;;;;;0.70;0.50;;;5.50;99.90;;;;;;5037015;28;20179;-76
2021/11/26 08:41:04;;;;;;;0.70;0.50;;;5.40;99.90;;;;;;5038894;28;20699;-76
2021/11/26 08:43:30;;;;;;;3.57;3.27;;;5.30;99.90;;;;;;5021864;28;20199;-76
2021/11/26 08:45:55;;;;;;;1.43;1.37;;;5.30;99.90;;;;;;5030851;28;20207;-76
2021/11/26 08:48:21;;;;;;;0.70;0.50;;;5.30;99.90;;;;;;5036640;28;20175;-77
2021/11/26 08:50:47;;;;;;;1.63;0.90;;;5.40;99.90;;;;;;5021086;28;20200;-76
2021/11/26 08:53:13;;;;;;;1.00;0.77;;;5.30;99.90;;;;;;5024522;28;20177;-76
2021/11/26 08:55:45;;;;;;;0.70;0.50;;;5.30;99.90;;;;;;5019118;28;20894;-77
2021/11/26 08:58:13;;;;;;;0.70;0.40;;;5.30;99.90;;;;;;5017990;28;20399;-76
2021/11/26 09:00:40;;;;;;;1.00;0.80;;;5.40;99.90;;;;;;5034288;28;20553;-76
2021/11/26 09:03:06;;;;;;;5.67;1.20;;;5.40;99.90;;;;;;5017368;28;20913;-76
2021/11/26 09:05:33;;;;;;;0.70;0.50;;;5.40;99.90;;;;;;5017254;28;20400;-76
2021/11/26 09:08:02;;;;;;;1.67;0.77;;;5.40;99.90;;;;;;5016387;28;20412;-77
2021/11/26 09:10:30;;;;;;;1.80;1.70;;;5.40;99.90;;;;;;5033849;28;20971;-77
2021/11/26 09:12:55;;;;;;;0.70;0.40;;;5.40;99.90;;;;;;5033508;28;20421;-76
2021/11/26 09:15:22;;;;;;;1.67;1.03;;;5.50;99.90;;;;;;5016848;28;20419;-76
2021/11/26 09:17:49;;;;;;;0.70;0.70;;;5.50;99.90;;;;;;5017907;28;20164;-76
2021/11/26 09:20:14;;;;;;;16.63;1.10;;;5.50;99.90;;;;;;5017375;28;20971;-76
2021/11/26 09:22:40;;;;;;;1.20;0.97;;;5.50;99.90;;;;;;5017530;28;20403;-76
2021/11/26 09:25:06;;;;;;;3.23;2.27;;;5.60;99.90;;;;;;5032997;28;20164;-76
2021/11/26 09:27:32;;;;;;;22.13;2.30;;;5.50;99.90;;;;;;5017595;28;20638;-76
2021/11/26 09:29:58;;;;;;;0.70;0.50;;;5.50;99.90;;;;;;5017772;28;20485;-76
2021/11/26 09:32:24;;;;;;;3.80;1.33;;;5.60;99.90;;;;;;5016583;28;20192;-76
2021/11/26 09:34:50;;;;;;;1.67;1.43;;;5.60;99.90;;;;;;5017994;28;20172;-76
2021/11/26 09:37:17;;;;;;;0.90;0.90;;;5.60;99.90;;;;;;5017193;28;20407;-76
2021/11/26 09:39:42;;;;;;;1.60;1.43;;;5.50;99.90;;;;;;5017211;28;20802;-76
2021/11/26 09:42:08;;;;;;;2.07;0.73;;;5.60;99.90;;;;;;5016449;28;20466;-76
2021/11/26 09:44:35;;;;;;;0.70;0.50;;;5.60;99.90;;;;;;5032914;28;20195;-76
2021/11/26 09:47:02;;;;;;;3.50;1.30;;;5.60;99.90;;;;;;5017222;28;20157;-76
2021/11/26 09:49:29;;;;;;;0.70;0.60;;;5.70;99.90;;;;;;5017317;28;20966;-76
2021/11/26 09:51:55;;;;;;;0.70;0.40;;;5.70;99.90;;;;;;5032307;28;20407;-76
2021/11/26 09:54:21;;;;;;;0.70;0.50;;;5.70;99.90;;;;;;5015776;28;20430;-76
2021/11/26 09:56:47;;;;;;;1.00;0.83;;;5.70;99.90;;;;;;5016824;28;20234;-76
2021/11/26 09:59:12;;;;;;;0.70;0.50;;;5.70;99.90;;;;;;5016438;28;20442;-76
2021/11/26 10:01:38;;;;;;;4.93;1.47;;;5.70;99.90;;;;;;5016449;28;20443;-76
2021/11/26 10:04:04;;;;;;;0.70;0.50;;;5.70;99.90;;;;;;5016214;28;20629;-76
2021/11/26 10:06:38;;;;;;;0.63;0.40;;;5.60;99.90;;;;;;5016856;28;20164;-76
2021/11/26 10:09:08;;;;;;;1.03;0.90;;;5.60;99.90;;;;;;5016241;28;20224;-76
2021/11/26 10:11:38;;;;;;;0.70;0.60;;;5.70;99.90;;;;;;5016354;28;20460;-77
2021/11/26 10:14:16;;;;;;;0.70;0.60;;;5.60;99.90;;;;;;5015472;28;20479;-76
2021/11/26 10:16:43;;;;;;;0.70;0.50;;;5.60;99.90;;;;;;5016448;28;20409;-76
2021/11/26 10:19:09;;;;;;;0.70;0.50;;;5.60;99.90;;;;;;5015814;28;20431;-76
2021/11/26 10:21:34;;;;;;;0.70;0.50;;;5.60;99.90;;;;;;5030778;28;20502;-76
2021/11/26 10:24:00;;;;;;;0.70;0.40;;;5.70;99.90;;;;;;5014988;28;20172;-76
2021/11/26 10:26:28;;;;;;;1.87;1.77;;;5.70;99.90;;;;;;5015391;28;20168;-76
2021/11/26 10:29:04;;;;;;;0.70;0.50;;;5.70;99.90;;;;;;5015762;28;20597;-76
2021/11/26 10:31:36;;;;;;;0.70;0.50;;;5.70;99.90;;;;;;5014550;28;20998;-76
2021/11/26 10:34:08;;;;;;;0.70;0.50;;;5.60;99.90;;;;;;5015209;28;20411;-76
2021/11/26 10:36:51;;;;;;;0.70;0.40;;;5.50;99.90;;;;;;5014102;28;20415;-76
2021/11/26 10:39:20;;;;;;;0.70;0.50;;;5.60;99.90;;;;;;5013513;28;20466;-75
2021/11/26 10:41:52;;;;;;;0.70;0.50;;;5.60;99.90;;;;;;5014708;28;20521;-76
2021/11/26 10:44:24;;;;;;;0.70;0.40;;;5.60;99.90;;;;;;5015698;28;20403;-76
2021/11/26 10:47:10;;;;;;;0.63;0.50;;;5.60;99.90;;;;;;5015746;28;20391;-76
2021/11/26 10:58:16;;;;;;;0.73;0.67;;;5.50;99.90;;;;;;5015673;28;20399;-76
2021/11/26 11:00:42;;;;;;;0.70;0.50;;;5.50;99.90;;;;;;5013903;28;20454;-76
2021/11/26 11:03:09;;;;;;;0.80;0.73;;;5.40;99.90;;;;;;5015359;28;20518;-76
2021/11/26 11:05:40;;;;;;;0.80;0.80;;;5.40;99.90;;;;;;5015038;28;20837;-76
2021/11/26 11:08:19;;;;;;;0.70;0.40;;;5.40;99.90;;;;;;5015225;28;20161;-76
2021/11/26 11:10:45;;;;;;;0.70;0.50;;;5.40;99.90;;;;;;5013697;28;20435;-76
2021/11/26 11:13:16;;;;;;;0.70;0.50;;;5.50;99.90;;;;;;5014756;28;20476;-76
2021/11/26 11:15:44;;;;;;;2.80;2.70;;;5.50;99.90;;;;;;5014874;28;20395;-76
2021/11/26 11:18:12;;;;;;;1.37;1.27;;;5.50;99.90;;;;;;5014296;28;20511;-76
2021/11/26 11:20:38;;;;;;;0.70;0.50;;;5.50;99.90;;;;;;5014766;28;20497;-76
2021/11/26 11:23:05;;;;;;;0.70;0.50;;;5.60;99.90;;;;;;5029905;28;20830;-76
2021/11/26 11:25:31;;;;;;;0.70;0.50;;;5.60;99.90;;;;;;5013125;28;20442;-76
2021/11/26 11:28:01;;;;;;;0.70;0.60;;;5.50;99.90;;;;;;5014901;28;20411;-76
2021/11/26 11:30:27;;;;;;;0.70;0.50;;;5.60;99.90;;;;;;5014859;28;20438;-76
2021/11/26 11:32:54;;;;;;;0.70;0.50;;;5.60;99.90;;;;;;5014494;28;20411;-76
2021/11/26 11:35:22;;;;;;;0.70;0.50;;;5.70;99.90;;;;;;5014948;28;20485;-76
2021/11/26 11:37:48;;;;;;;0.70;0.60;;;5.80;99.90;;;;;;5014632;28;20777;-76
2021/11/26 11:40:26;;;;;;;0.70;0.60;;;5.80;99.90;;;;;;5014804;28;20497;-76
2021/11/26 11:42:51;;;;;;;0.70;0.50;;;5.80;99.90;;;;;;5014654;28;20409;-76
2021/11/26 11:45:21;;;;;;;0.70;0.43;;;5.80;99.90;;;;;;5013478;28;20407;-76
2021/11/26 11:47:52;;;;;;;0.70;0.50;;;5.80;99.90;;;;;;5015023;28;20161;-76
2021/11/26 11:50:21;;;;;;;0.70;0.43;;;5.90;99.90;;;;;;5014759;28;20430;-77
2021/11/26 11:52:57;;;;;;;1.10;0.80;;;5.90;99.90;;;;;;5014951;28;20415;-75
2021/11/26 11:55:30;;;;;;;1.77;1.23;;;6.10;99.90;;;;;;5014758;28;20398;-76
2021/11/26 11:58:24;;;;;;;0.70;0.63;;;6.20;99.90;;;;;;5014320;28;20428;-76
2021/11/26 12:00:53;;;;;;;0.70;0.50;;;6.20;99.90;;;;;;5011975;28;20463;-76
2021/11/26 12:03:21;;;;;;;0.70;0.40;;;6.40;99.90;;;;;;5014987;28;20411;-76
2021/11/26 12:06:02;;;;;;;0.70;0.50;;;6.20;99.90;;;;;;5013986;28;20434;-76
2021/11/26 12:08:28;;;;;;;0.70;0.50;;;6.30;99.90;;;;;;5031883;28;20425;-76
2021/11/26 12:10:59;;;;;;;1.20;1.10;;;6.30;99.90;;;;;;5014873;28;20565;-76
2021/11/26 12:13:30;;;;;;;0.70;0.40;;;6.20;99.90;;;;;;5015413;28;20886;-76
2021/11/26 12:16:16;;;;;;;1.37;0.83;;;6.10;99.90;;;;;;5014986;28;20453;-76
2021/11/26 12:18:45;;;;;;;0.70;0.50;;;6.20;99.90;;;;;;5014971;28;20442;-76
2021/11/26 12:21:13;;;;;;;0.70;0.50;;;6.20;99.90;;;;;;5013691;28;20466;-76
2021/11/26 12:24:03;;;;;;;0.70;0.50;;;6.20;99.90;;;;;;5015244;28;20404;-76
2021/11/26 12:26:47;;;;;;;0.70;0.50;;;6.30;99.90;;;;;;5014877;28;20860;-76
2021/11/26 12:29:13;;;;;;;0.70;0.50;;;6.40;99.90;;;;;;5014624;28;20934;-76
2021/11/26 12:31:40;;;;;;;0.70;0.50;;;6.50;99.90;;;;;;5015294;28;20511;-76
2021/11/26 12:34:12;;;;;;;0.70;0.50;;;6.40;99.90;;;;;;5015434;28;20474;-76
2021/11/26 12:36:50;;;;;;;0.70;0.50;;;6.50;99.90;;;;;;5015403;28;20399;-75
2021/11/26 12:39:25;;;;;;;0.70;0.50;;;6.40;99.90;;;;;;5017050;28;20461;-76
2021/11/26 12:41:57;;;;;;;0.87;0.60;;;6.80;99.90;;;;;;5018689;28;20439;-76
2021/11/26 12:44:29;;;;;;;1.53;1.33;;;6.80;99.90;;;;;;5019530;28;20395;-76
2021/11/26 12:46:58;;;;;;;0.70;0.50;;;6.50;99.90;;;;;;5018657;28;20407;-76
2021/11/26 12:52:02;;;;;;;0.70;0.50;;;6.50;99.90;;;;;;5019090;28;20419;-77
2021/11/26 12:54:38;;;;;;;0.80;0.70;;;6.40;99.90;;;;;;5017670;28;20786;-76
2021/11/26 12:57:08;;;;;;;0.70;0.60;;;6.30;99.90;;;;;;5018684;28;20437;-76
2021/11/26 12:59:39;;;;;;;0.87;0.53;;;6.20;99.90;;;;;;5018741;28;20410;-75
2021/11/26 13:02:06;;;;;;;0.70;0.50;;;6.10;99.90;;;;;;5018698;28;20453;-76
2021/11/26 13:04:32;;;;;;;0.70;0.50;;;6.10;99.90;;;;;;5017268;28;20396;-75
2021/11/26 13:07:03;;;;;;;0.70;0.60;;;6.10;99.90;;;;;;5014659;28;20453;-75
2021/11/26 13:09:43;;;;;;;0.70;0.50;;;6.20;99.90;;;;;;5016424;28;20438;-75